Météo Nord-Pas-de-Calais   La météo au plus près de chez vous

Station météorologique

Observations météo à Brive-Souillac (19147)

19147001 295 m Dernier relevé à 03:54
14.5°C
Humidité 80 % Vent 0 km/h 1022.1 hPa

Journée consultée

Vendredi 4 Septembre 2026

Synthèse de la journée

Périodes de référence en UTC

Température maximale

29.9°C

à 18:00

06h 06h

Température minimale

14.5°C

à 03:42

18h 18h

Rafale maximale

3 km/h

à 02:48

00h 00h

Précipitations

0 mm

Cumul quotidien

06h 06h

Graphiques de la journée

Heure locale Réduire

Données détaillées

Relevés météo

Pas de 6 minutes Afficher les relevés infra-horaires
Relevés météo détaillés à Brive-Souillac pour le Vendredi 4 Septembre 2026
Heure Température °C Point de rosée °C Humidité % Vent moyen (raf.), km/h Précipitations mm Visibilité m Pression hPa
03:54 14.5 °C 11.6 °C 83 % 0 km/h (2 km/h) 0 mm0 mm 60000 m 1021.9 hPa
03:48 14.5 °C 11.5 °C 82 % 0 km/h (2 km/h) 0 mm0 mm 60000 m 1021.9 hPa
03:42 14.5 °C 11.6 °C 83 % 0 km/h (2 km/h) 0 mm0 mm 60000 m 1021.9 hPa
03:36 14.6 °C 11.6 °C 82 % 2 km/h (2 km/h) 0 mm0 mm 60000 m 1021.8 hPa
03:30 14.7 °C 11.5 °C 81 % 2 km/h (3 km/h) 0 mm0 mm 60000 m 1021.9 hPa
03:24 14.9 °C 11.7 °C 81 % 0 km/h (3 km/h) 0 mm0 mm 60000 m 1022 hPa
03:18 14.9 °C 11.7 °C 81 % 0 km/h (3 km/h) 0 mm0 mm 60000 m 1022 hPa
03:12 14.8 °C 11.6 °C 81 % 2 km/h (3 km/h) 0 mm0 mm 60000 m 1022 hPa
03:06 14.9 °C 11.7 °C 81 % 0 km/h (2 km/h) 0 mm0 mm 60000 m 1022.1 hPa
03:00 15.1 °C 11.7 °C 80 % 0 km/h (0 km/h) 0 mm0 mm 60000 m 1022.1 hPa
02:54 15.1 °C 11.7 °C 80 % 0 km/h (3 km/h) 0 mm0 mm 60000 m 1022.1 hPa
02:48 15.2 °C 11.6 °C 79 % 2 km/h (3 km/h) 0 mm0 mm 60000 m 1022.1 hPa
02:42 15.3 °C 11.7 °C 79 % 0 km/h (2 km/h) 0 mm0 mm 60000 m 1022.3 hPa
02:36 15.3 °C 11.7 °C 79 % 0 km/h (2 km/h) 0 mm0 mm 60000 m 1022.3 hPa
02:30 15.6 °C 11.8 °C 78 % 0 km/h (2 km/h) 0 mm0 mm 60000 m 1022.3 hPa
02:24 15.5 °C 11.7 °C 78 % 0 km/h (0 km/h) 0 mm0 mm 60000 m 1022.4 hPa
02:18 15.6 °C 11.8 °C 78 % 0 km/h (2 km/h) 0 mm0 mm 60000 m 1022.4 hPa
02:12 15.6 °C 11.8 °C 78 % 0 km/h (2 km/h) 0 mm0 mm 60000 m 1022.4 hPa
02:06 15.7 °C 11.7 °C 77 % 0 km/h (2 km/h) 0 mm0 mm 60000 m 1022.4 hPa
02:00 15.9 °C 11.9 °C 77 % 0 km/h (0 km/h) 0 mm0 mm 60000 m 1022.5 hPa
01:54 16 °C 11.8 °C 76 % 0 km/h (0 km/h) 0 mm0 mm 60000 m 1022.6 hPa
01:48 16.2 °C 12 °C 76 % 0 km/h (0 km/h) 0 mm0 mm 60000 m 1022.6 hPa
01:42 16.1 °C 11.7 °C 75 % 0 km/h (2 km/h) 0 mm0 mm 60000 m 1022.6 hPa
01:36 16.3 °C 11.7 °C 74 % 0 km/h (3 km/h) 0 mm0 mm 60000 m 1022.7 hPa
01:30 16.4 °C 11.8 °C 74 % 0 km/h (3 km/h) 0 mm0 mm 60000 m 1022.7 hPa
01:24 16.4 °C 11.8 °C 74 % 0 km/h (2 km/h) 0 mm0 mm 60000 m 1022.7 hPa
01:18 16.5 °C 11.8 °C 74 % 2 km/h (3 km/h) 0 mm0 mm 60000 m 1022.6 hPa
01:12 16.7 °C 11.8 °C 73 % 0 km/h (3 km/h) 0 mm0 mm 60000 m 1022.6 hPa
01:06 16.8 °C 11.9 °C 73 % 0 km/h (2 km/h) 0 mm0 mm 60000 m 1022.6 hPa
01:00 16.8 °C 11.7 °C 72 % 0 km/h (0 km/h) 0 mm0 mm 60000 m 1022.7 hPa
00:54 16.9 °C 11.8 °C 72 % 0 km/h (0 km/h) 0 mm0 mm 60000 m 1022.7 hPa
00:48 17 °C 11.9 °C 72 % 0 km/h (3 km/h) 0 mm0 mm 60000 m 1022.7 hPa
00:42 17.1 °C 11.8 °C 71 % 0 km/h (3 km/h) 0 mm0 mm 60000 m 1022.7 hPa
00:36 17.2 °C 11.9 °C 71 % 0 km/h (0 km/h) 0 mm0 mm 60000 m 1022.7 hPa
00:30 17.2 °C 11.9 °C 71 % 0 km/h (0 km/h) 0 mm0 mm 60000 m 1022.7 hPa
00:24 17.3 °C 11.8 °C 70 % 0 km/h (0 km/h) 0 mm0 mm 60000 m 1022.5 hPa
00:18 17.4 °C 11.7 °C 69 % 0 km/h (0 km/h) 0 mm0 mm 60000 m 1022.5 hPa
00:12 17.4 °C 11.7 °C 69 % 0 km/h (0 km/h) 0 mm0 mm 60000 m 1022.6 hPa
00:06 17.6 °C 11.8 °C 69 % 0 km/h (0 km/h) 0 mm0 mm 60000 m 1022.6 hPa
00:00 17.6 °C 11.6 °C 68 % 0 km/h (0 km/h) 0 mm0 mm 60000 m 1022.6 hPa

Données via Météo-France

Relevés météo à Brive-Souillac

Cette page rassemble les observations de la station de Brive-Souillac : température, humidité, vent, précipitations et pression atmosphérique. Les graphiques facilitent le suivi de la journée, tandis que le tableau donne accès aux mesures horaires et infra-horaires disponibles.

Pour replacer ces mesures dans leur contexte, consultez la climatologie de Brive-Souillac ainsi que ses normales et records. Retrouvez aussi la carte des observations météo en temps réel.